.
WxDataArchive / Data Records for 2016-05-12
2016-05-11 May 2016 2016-05-13

Data Records for Thursday, 12 May 2016

Time	Temp	Chill	HIndex	Humid	Dewpt	 Wind 	HiWind	WindDir	Rain 	Barom
-----	----	-----	------	-----	-----	------	------	-------	-----	-----
00:00	63.1	63.1	63.1	91	60.4	0	3	90	0.00	29.999 
00:05	63.1	63.1	63.1	91	60.4	0	3	90	0.00	29.999 
00:10	62.9	62.9	62.9	91	60.2	0	2	90	0.00	29.999 
00:15	62.7	62.7	62.7	91	60.0	1	3	90	0.00	29.999 
00:20	62.7	62.7	62.7	91	60.0	1	3	90	0.00	29.999 
00:25	62.6	62.6	62.6	91	59.9	1	4	90	0.00	29.999 
00:30	62.4	62.4	62.4	91	59.7	1	4	90	0.00	29.997 
00:35	62.3	62.3	62.3	91	59.6	1	5	90	0.00	29.997 
00:40	62.1	62.1	62.1	91	59.4	1	3	90	0.00	29.997 
00:45	62.0	62.0	62.0	91	59.3	1	3	90	0.00	29.988 
00:50	61.8	61.8	61.8	91	59.1	1	4	90	0.00	29.988 
00:55	61.8	61.8	61.8	91	59.1	0	2	90	0.00	29.988 
01:00	61.6	61.6	61.6	92	59.2	1	3	90	0.00	29.985 
01:05	61.5	61.5	61.5	92	59.2	1	3	90	0.00	29.985 
01:10	61.3	61.3	61.3	92	59.0	1	6	90	0.00	29.985 
01:15	61.3	61.3	61.3	92	59.0	0	2	112	0.00	29.978 
01:20	61.2	61.2	61.2	92	58.9	0	2	112	0.00	29.978 
01:25	61.2	61.2	61.2	92	58.9	0	2	112	0.00	29.978 
01:30	61.0	61.0	61.0	92	58.7	0	3	112	0.00	29.966 
01:35	61.0	61.0	61.0	92	58.7	0	2	112	0.00	29.966 
01:40	60.9	60.9	60.9	92	58.6	0	2	112	0.00	29.966 
01:45	60.7	60.7	60.7	92	58.4	0	3	112	0.00	29.961 
01:50	60.7	60.7	60.7	92	58.4	0	2	112	0.00	29.961 
01:55	60.5	60.5	60.5	93	58.5	1	3	112	0.00	29.961 
02:00	60.5	60.5	60.5	93	58.5	0	1	112	0.00	29.958 
02:05	60.4	60.4	60.4	93	58.4	0	1	112	0.00	29.958 
02:10	60.4	60.4	60.4	93	58.4	0	2	112	0.00	29.958 
02:15	60.4	60.4	60.4	93	58.4	0	0	---	0.00	29.954 
02:20	60.4	60.4	60.4	93	58.4	0	0	---	0.00	29.954 
02:25	60.4	60.4	60.4	93	58.4	0	1	112	0.00	29.954 
02:30	60.4	60.4	60.4	93	58.4	0	1	112	0.00	29.948 
02:35	60.4	60.4	60.4	93	58.4	1	4	112	0.00	29.948 
02:40	60.5	60.5	60.5	93	58.5	1	2	112	0.00	29.948 
02:45	60.4	60.4	60.4	93	58.4	1	3	112	0.00	29.941 
02:50	60.4	60.4	60.4	93	58.4	0	3	112	0.00	29.941 
02:55	60.4	60.4	60.4	93	58.4	0	2	112	0.00	29.941 
03:00	60.4	60.4	60.4	93	58.4	1	4	112	0.00	29.933 
03:05	60.4	60.4	60.4	93	58.4	1	2	112	0.00	29.933 
03:10	60.4	60.4	60.4	93	58.4	0	1	112	0.00	29.933 
03:15	60.4	60.4	60.4	93	58.4	0	0	---	0.00	29.961 
03:20	60.4	60.4	60.4	93	58.4	0	0	---	0.00	29.961 
03:25	60.4	60.4	60.4	93	58.4	0	2	112	0.00	29.961 
03:30	60.4	60.4	60.4	93	58.4	0	2	112	0.00	29.946 
03:35	60.4	60.4	60.4	93	58.4	0	1	112	0.00	29.946 
03:40	60.4	60.4	60.4	93	58.4	0	2	112	0.00	29.946 
03:45	60.4	60.4	60.4	93	58.4	0	0	---	0.00	29.947 
03:50	60.2	60.2	60.2	93	58.2	0	0	---	0.00	29.947 
03:55	60.2	60.2	60.2	93	58.2	0	0	---	0.00	29.947 
04:00	60.2	60.2	60.2	93	58.2	0	0	---	0.00	29.949 
04:05	60.1	60.1	60.1	93	58.1	0	0	---	0.00	29.949 
04:10	59.9	59.9	59.9	93	57.9	0	0	---	0.00	29.949 
04:15	59.9	59.9	59.9	93	57.9	0	0	---	0.00	29.946 
04:20	59.8	59.8	59.8	93	57.8	0	0	---	0.00	29.946 
04:25	59.6	59.6	59.6	93	57.6	0	0	---	0.00	29.946 
04:30	59.6	59.6	59.6	93	57.6	0	1	112	0.00	29.944 
04:35	59.5	59.5	59.5	94	57.8	0	0	---	0.00	29.944 
04:40	59.5	59.5	59.5	94	57.8	0	2	112	0.00	29.944 
04:45	59.3	59.3	59.3	94	57.6	0	0	---	0.00	29.937 
04:50	59.3	59.3	59.3	94	57.6	0	0	---	0.00	29.937 
04:55	59.3	59.3	59.3	94	57.6	0	0	---	0.00	29.937 
05:00	59.2	59.2	59.2	94	57.5	0	0	---	0.00	29.921 
05:05	59.2	59.2	59.2	94	57.5	0	0	---	0.00	29.921 
05:10	59.3	59.3	59.3	94	57.6	0	0	---	0.00	29.921 
05:15	59.2	59.2	59.2	94	57.5	0	0	---	0.00	29.903 
05:20	59.2	59.2	59.2	94	57.5	0	1	112	0.00	29.903 
05:25	59.0	59.0	59.0	94	57.3	0	0	---	0.00	29.903 
05:30	59.0	59.0	59.0	94	57.3	0	0	---	0.00	29.899 
05:35	58.9	58.9	58.9	95	57.5	0	1	112	0.00	29.899 
05:40	59.0	59.0	59.0	95	57.6	0	0	---	0.00	29.899 
05:45	58.9	58.9	58.9	95	57.5	0	0	---	0.00	29.899 
05:50	58.9	58.9	58.9	95	57.5	0	0	---	0.00	29.899 
05:55	59.0	59.0	59.0	95	57.6	0	1	112	0.00	29.899 
06:00	59.0	59.0	59.0	95	57.6	0	1	112	0.00	29.918 
06:05	59.2	59.2	59.2	95	57.8	0	0	---	0.00	29.918 
06:10	59.2	59.2	59.2	95	57.8	0	0	---	0.00	29.918 
06:15	59.0	59.0	59.0	95	57.6	0	0	---	0.00	29.916 
06:20	59.0	59.0	59.0	95	57.6	0	0	---	0.00	29.916 
06:25	59.0	59.0	59.0	95	57.6	0	0	---	0.00	29.916 
06:30	58.9	58.9	58.9	95	57.5	0	0	---	0.00	29.915 
06:35	58.7	58.7	58.7	95	57.3	0	0	---	0.00	29.915 
06:40	58.7	58.7	58.7	95	57.3	0	0	---	0.00	29.915 
06:45	58.7	58.7	58.7	95	57.3	0	0	---	0.00	29.924 
06:50	58.6	58.6	58.6	95	57.2	0	0	---	0.00	29.924 
06:55	58.6	58.6	58.6	95	57.2	0	0	---	0.00	29.924 
07:00	58.6	58.6	58.6	95	57.2	0	0	---	0.00	29.935 
07:05	58.4	58.4	58.4	95	57.0	0	0	---	0.00	29.935 
07:10	58.4	58.4	58.4	95	57.0	0	0	---	0.00	29.935 
07:15	58.4	58.4	58.4	95	57.0	0	0	---	0.00	29.946 
07:20	58.6	58.6	58.6	95	57.2	0	0	---	0.00	29.946 
07:25	58.6	58.6	58.6	95	57.2	0	0	---	0.00	29.946 
07:30	58.6	58.6	58.6	95	57.2	0	0	---	0.00	29.947 
07:35	58.6	58.6	58.6	95	57.2	0	0	---	0.00	29.947 
07:40	58.7	58.7	58.7	95	57.3	0	0	---	0.00	29.947 
07:45	58.7	58.7	58.7	95	57.3	0	0	---	0.00	29.945 
07:50	58.7	58.7	58.7	95	57.3	0	0	---	0.00	29.945 
07:55	58.7	58.7	58.7	95	57.3	0	0	---	0.00	29.945 
08:00	58.9	58.9	58.9	96	57.8	0	0	---	0.00	29.938 
08:05	58.9	58.9	58.9	96	57.8	0	0	---	0.00	29.938 
08:10	59.0	59.0	59.0	96	57.9	0	0	---	0.00	29.938 
08:15	59.0	59.0	59.0	96	57.9	0	0	---	0.00	29.934 
08:20	59.3	59.3	59.3	96	58.2	0	0	---	0.00	29.934 
08:25	60.2	60.2	60.2	96	59.1	0	1	158	0.00	29.934 
08:30	61.5	61.5	61.5	96	60.3	0	1	158	0.00	29.933 
08:35	62.3	62.3	62.3	96	61.1	0	0	---	0.00	29.933 
08:40	62.9	62.9	62.9	95	61.4	0	1	158	0.00	29.933 
08:45	63.4	63.4	63.4	94	61.6	0	1	158	0.00	29.931 
08:50	63.7	63.7	63.7	93	61.6	0	1	158	0.00	29.931 
08:55	63.9	63.9	63.9	92	61.5	0	1	158	0.00	29.931 
09:00	64.0	64.0	64.0	92	61.6	0	0	---	0.00	29.930 
09:05	64.2	64.2	64.2	91	61.5	0	1	180	0.00	29.930 
09:10	64.5	64.5	64.5	90	61.5	0	0	---	0.00	29.930 
09:15	65.0	65.0	65.0	88	61.4	0	2	180	0.00	29.934 
09:20	65.6	65.6	65.6	87	61.6	0	1	180	0.00	29.934 
09:25	66.6	66.6	66.6	85	61.9	0	1	180	0.00	29.934 
09:30	67.1	67.1	67.1	81	61.1	0	2	158	0.00	29.938 
09:35	67.3	67.3	67.3	79	60.6	0	1	158	0.00	29.938 
09:40	67.4	67.4	67.4	79	60.7	0	1	158	0.00	29.938 
09:45	67.8	67.8	67.8	78	60.7	0	1	158	0.00	29.933 
09:50	68.3	68.3	68.3	77	60.8	0	3	158	0.00	29.933 
09:55	68.6	68.6	68.6	75	60.3	0	2	248	0.00	29.933 
10:00	68.8	68.8	68.8	75	60.5	0	2	248	0.00	29.938 
10:05	68.4	68.4	68.4	73	59.4	1	4	248	0.00	29.938 
10:10	68.4	68.4	68.4	74	59.8	0	3	248	0.00	29.938 
10:15	68.6	68.6	68.6	74	60.0	0	1	248	0.00	29.930 
10:20	69.1	69.1	69.1	74	60.5	0	1	248	0.00	29.930 
10:25	69.6	69.6	69.6	73	60.6	0	1	248	0.00	29.930 
10:30	70.4	70.4	70.4	73	61.3	0	0	---	0.00	29.917 
10:35	71.1	71.1	71.1	72	61.6	0	1	248	0.00	29.917 
10:40	71.8	71.8	71.8	69	61.1	0	1	248	0.00	29.917 
10:45	72.7	72.7	72.7	68	61.5	0	1	248	0.00	29.911 
10:50	73.3	73.3	73.3	65	60.8	0	1	248	0.00	29.911 
10:55	73.5	73.5	73.5	65	61.0	0	4	112	0.00	29.911 
11:00	73.0	73.0	73.0	64	60.1	1	3	112	0.00	29.912 
11:05	73.5	73.5	73.5	67	61.9	0	2	112	0.00	29.912 
11:10	74.0	74.0	74.0	63	60.6	0	3	112	0.00	29.912 
11:15	74.6	74.6	74.6	64	61.6	0	3	112	0.00	29.909 
11:20	74.6	74.6	74.6	61	60.2	0	2	112	0.00	29.909 
11:25	74.6	74.6	74.6	63	61.2	0	2	112	0.00	29.909 
11:30	75.3	75.3	77.5	61	60.9	0	4	112	0.00	29.898 
11:35	75.6	75.6	77.7	62	61.6	0	1	112	0.00	29.898 
11:40	76.1	76.1	78.1	60	61.2	0	3	112	0.00	29.898 
11:45	76.3	76.3	78.2	62	62.3	1	4	112	0.00	29.894 
11:50	76.3	76.3	78.2	61	61.8	0	2	112	0.00	29.894 
11:55	76.1	76.1	78.1	60	61.2	1	3	112	0.00	29.894 
12:00	75.8	75.8	77.8	61	61.4	2	5	112	0.00	29.892 
12:05	75.1	75.1	77.3	63	61.6	1	3	112	0.00	29.892 
12:10	75.1	75.1	77.3	63	61.6	0	2	112	0.00	29.892 
12:15	75.1	75.1	77.2	64	62.1	0	1	112	0.00	29.897 
12:20	75.1	75.1	77.3	63	61.6	1	4	112	0.00	29.897 
12:25	74.9	74.9	74.9	64	61.9	0	2	112	0.00	29.897 
12:30	74.6	74.6	74.6	65	62.0	0	3	112	0.00	29.895 
12:35	74.2	74.2	74.2	65	61.7	0	2	135	0.00	29.895 
12:40	73.7	73.7	73.7	66	61.6	0	4	22	0.00	29.895 
12:45	73.7	73.7	73.7	66	61.6	0	5	45	0.00	29.891 
12:50	73.7	73.7	73.7	67	62.0	0	2	45	0.00	29.891 
12:55	74.2	74.2	74.2	67	62.5	1	3	45	0.00	29.891 
13:00	74.4	74.4	74.4	65	61.8	1	4	270	0.00	29.887 
13:05	74.6	74.6	74.6	67	62.9	0	3	0	0.00	29.887 
13:10	74.7	74.7	74.7	65	62.1	1	3	112	0.00	29.887 
13:15	74.9	74.9	74.9	66	62.8	1	4	112	0.00	29.879 
13:20	75.3	75.3	77.3	65	62.7	0	1	112	0.00	29.879 
13:25	75.4	75.4	77.4	64	62.4	0	3	112	0.00	29.879 
13:30	75.6	75.6	77.5	65	63.0	0	3	112	0.00	29.879 
13:35	75.8	75.8	77.7	64	62.7	1	5	68	0.00	29.879 
13:40	75.8	75.8	77.7	64	62.7	0	3	292	0.00	29.879 
13:45	75.6	75.6	77.5	65	63.0	1	3	270	0.00	29.869 
13:50	75.8	75.8	77.7	65	63.2	1	3	270	0.00	29.869 
13:55	75.8	75.8	77.7	65	63.2	1	4	90	0.00	29.869 
14:00	75.8	75.8	77.7	66	63.6	1	3	338	0.00	29.864 
14:05	76.1	76.1	78.0	64	63.0	1	3	68	0.00	29.864 
14:10	76.5	76.5	78.3	63	62.9	1	4	68	0.00	29.864 
14:15	76.3	76.3	78.1	65	63.6	1	4	68	0.00	29.863 
14:20	76.3	76.3	78.2	63	62.8	0	3	270	0.00	29.863 
14:25	76.3	76.3	78.2	63	62.8	0	1	270	0.00	29.863 
14:30	76.3	76.3	78.2	63	62.8	1	4	270	0.00	29.862 
14:35	76.0	76.0	77.9	64	62.9	0	3	270	0.00	29.862 
14:40	75.8	75.8	77.7	65	63.2	0	2	292	0.00	29.862 
14:45	75.8	75.8	77.7	65	63.2	0	3	68	0.00	29.856 
14:50	75.6	75.6	77.6	64	62.5	0	1	68	0.00	29.856 
14:55	75.6	75.6	77.4	67	63.9	0	1	68	0.00	29.856 
15:00	75.6	75.6	77.5	65	63.0	0	2	248	0.00	29.853 
15:05	75.4	75.4	77.3	66	63.2	1	4	158	0.00	29.853 
15:10	75.4	75.4	77.3	66	63.2	1	5	270	0.00	29.853 
15:15	75.3	75.3	77.3	65	62.7	0	3	90	0.00	29.850 
15:20	75.1	75.1	77.1	66	62.9	1	4	270	0.00	29.850 
15:25	75.1	75.1	77.1	66	62.9	0	2	270	0.00	29.850 
15:30	74.9	74.9	74.9	66	62.8	0	2	270	0.00	29.847 
15:35	74.9	74.9	74.9	65	62.3	1	3	270	0.00	29.847 
15:40	74.9	74.9	74.9	65	62.3	0	3	270	0.00	29.847 
15:45	74.9	74.9	74.9	65	62.3	0	3	270	0.00	29.835 
15:50	74.9	74.9	74.9	65	62.3	0	3	270	0.00	29.835 
15:55	74.9	74.9	74.9	65	62.3	0	2	270	0.00	29.835 
16:00	74.9	74.9	74.9	65	62.3	0	2	270	0.00	29.829 
16:05	75.1	75.1	77.2	64	62.1	0	3	270	0.00	29.829 
16:10	75.3	75.3	77.4	64	62.3	0	1	270	0.00	29.829 
16:15	75.1	75.1	77.2	64	62.1	0	2	270	0.00	29.820 
16:20	74.9	74.9	74.9	64	61.9	1	5	270	0.00	29.820 
16:25	74.9	74.9	74.9	65	62.3	0	1	292	0.00	29.820 
16:30	74.6	74.6	74.6	65	62.0	0	3	292	0.00	29.816 
16:35	74.2	74.2	74.2	65	61.7	1	4	292	0.00	29.816 
16:40	73.9	73.9	73.9	66	61.8	0	2	292	0.00	29.816 
16:45	73.5	73.5	73.5	67	61.9	1	4	292	0.00	29.810 
16:50	73.2	73.2	73.2	67	61.6	1	3	292	0.00	29.810 
16:55	72.8	72.8	72.8	69	62.0	0	3	292	0.00	29.810 
17:00	72.7	72.7	72.7	69	61.9	0	3	292	0.00	29.817 
17:05	72.5	72.5	72.5	70	62.1	1	3	292	0.00	29.817 
17:10	72.1	72.1	72.1	73	63.0	2	5	292	0.00	29.817 
17:15	71.6	71.6	71.6	75	63.2	2	5	292	0.00	29.819 
17:20	71.1	71.1	71.1	77	63.5	0	2	292	0.00	29.819 
17:25	70.6	70.6	70.6	79	63.8	0	2	292	0.01	29.819 
17:30	70.1	70.1	70.1	81	64.0	0	3	292	0.00	29.820 
17:35	69.4	69.4	69.4	83	64.0	0	2	292	0.01	29.820 
17:40	68.9	68.9	68.9	84	63.9	0	1	292	0.00	29.820 
17:45	68.6	68.6	68.6	85	63.9	0	0	---	0.01	29.819 
17:50	68.4	68.4	68.4	86	64.0	0	0	---	0.00	29.819 
17:55	68.3	68.3	68.3	87	64.3	0	0	---	0.00	29.819 
18:00	68.1	68.1	68.1	88	64.4	0	1	292	0.00	29.828 
18:05	67.9	67.9	67.9	88	64.2	0	3	292	0.01	29.828 
18:10	67.6	67.6	67.6	88	63.9	1	5	270	0.00	29.828 
18:15	67.1	67.1	67.1	89	63.7	2	4	270	0.01	29.830 
18:20	66.8	66.8	66.8	89	63.4	2	4	270	0.01	29.830 
18:25	66.4	66.4	66.4	90	63.4	1	4	270	0.07	29.830 
18:30	66.1	66.1	66.1	90	63.1	1	4	292	0.07	29.841 
18:35	65.8	65.8	65.8	91	63.1	0	2	292	0.03	29.841 
18:40	65.6	65.6	65.6	92	63.2	1	2	292	0.02	29.841 
18:45	65.5	65.5	65.5	92	63.1	2	4	292	0.02	29.841 
18:50	65.3	65.3	65.3	92	62.9	2	3	292	0.02	29.841 
18:55	65.2	65.2	65.2	92	62.8	1	3	292	0.01	29.841 
19:00	65.2	65.2	65.2	93	63.1	0	2	292	0.01	29.830 
19:05	65.0	65.0	65.0	93	62.9	0	2	315	0.01	29.830 
19:10	65.0	65.0	65.0	93	62.9	0	2	315	0.01	29.830 
19:15	65.0	65.0	65.0	93	62.9	0	2	315	0.00	29.833 
19:20	64.8	64.8	64.8	93	62.7	0	2	315	0.00	29.833 
19:25	64.8	64.8	64.8	93	62.7	0	2	315	0.01	29.833 
19:30	64.8	64.8	64.8	94	63.0	1	3	315	0.00	29.837 
19:35	64.5	64.5	64.5	93	62.4	2	5	315	0.01	29.837 
19:40	64.0	64.0	64.0	93	61.9	2	6	315	0.00	29.837 
19:45	63.9	63.9	63.9	93	61.8	1	3	292	0.00	29.852 
19:50	63.7	63.7	63.7	93	61.6	1	3	292	0.00	29.852 
19:55	63.5	63.5	63.5	94	61.7	1	3	292	0.00	29.852 
20:00	63.4	63.4	63.4	94	61.6	0	3	292	0.00	29.858 
20:05	63.2	63.2	63.2	94	61.4	0	3	292	0.00	29.858 
20:10	63.2	63.2	63.2	94	61.4	0	1	292	0.00	29.858 
20:15	63.2	63.2	63.2	94	61.4	0	1	292	0.01	29.859 
20:20	63.1	63.1	63.1	94	61.3	0	1	292	0.00	29.859 
20:25	63.1	63.1	63.1	94	61.3	0	1	292	0.00	29.859 
20:30	62.9	62.9	62.9	94	61.1	1	3	292	0.00	29.864 
20:35	62.7	62.7	62.7	94	60.9	1	3	292	0.00	29.864 
20:40	62.6	62.6	62.6	94	60.8	1	4	292	0.00	29.864 
20:45	62.4	62.4	62.4	94	60.6	1	4	292	0.00	29.859 
20:50	62.1	62.1	62.1	94	60.3	1	5	292	0.00	29.859 
20:55	62.0	62.0	62.0	94	60.2	1	3	292	0.00	29.859 
21:00	61.8	61.8	61.8	94	60.1	1	3	292	0.00	29.857 
21:05	61.8	61.8	61.8	94	60.1	0	3	292	0.00	29.857 
21:10	61.8	61.8	61.8	94	60.1	0	2	292	0.00	29.857 
21:15	61.8	61.8	61.8	94	60.1	0	2	292	0.00	29.865 
21:20	61.6	61.6	61.6	94	59.9	0	1	292	0.00	29.865 
21:25	61.6	61.6	61.6	94	59.9	0	1	292	0.00	29.865 
21:30	61.6	61.6	61.6	94	59.9	0	1	292	0.00	29.867 
21:35	61.6	61.6	61.6	94	59.9	0	1	292	0.00	29.867 
21:40	61.5	61.5	61.5	94	59.8	0	0	---	0.00	29.867 
21:45	61.5	61.5	61.5	94	59.8	0	0	---	0.00	29.868 
21:50	61.5	61.5	61.5	94	59.8	0	1	292	0.00	29.868 
21:55	61.3	61.3	61.3	94	59.6	0	1	292	0.00	29.868 
22:00	61.3	61.3	61.3	94	59.6	0	0	---	0.00	29.869 
22:05	61.3	61.3	61.3	94	59.6	0	1	292	0.00	29.869 
22:10	61.2	61.2	61.2	94	59.5	0	0	---	0.00	29.869 
22:15	61.2	61.2	61.2	94	59.5	0	1	292	0.00	29.868 
22:20	61.0	61.0	61.0	94	59.3	0	0	---	0.00	29.868 
22:25	61.0	61.0	61.0	95	59.6	0	0	---	0.00	29.868 
22:30	61.0	61.0	61.0	94	59.3	0	0	---	0.00	29.871 
22:35	60.9	60.9	60.9	95	59.5	0	0	---	0.00	29.871 
22:40	60.9	60.9	60.9	95	59.5	0	0	---	0.00	29.871 
22:45	60.9	60.9	60.9	95	59.5	0	0	---	0.00	29.870 
22:50	60.7	60.7	60.7	95	59.3	0	0	---	0.00	29.870 
22:55	60.7	60.7	60.7	95	59.3	0	0	---	0.00	29.870 
23:00	60.5	60.5	60.5	95	59.1	0	0	---	0.00	29.869 
23:05	60.4	60.4	60.4	95	59.0	0	0	---	0.00	29.869 
23:10	60.2	60.2	60.2	95	58.8	0	0	---	0.00	29.869 
23:15	60.1	60.1	60.1	95	58.7	0	0	---	0.00	29.867 
23:20	59.9	59.9	59.9	95	58.5	0	0	---	0.00	29.867 
23:25	59.8	59.8	59.8	95	58.4	0	0	---	0.00	29.867 
23:30	59.6	59.6	59.6	95	58.2	0	0	---	0.00	29.865 
23:35	59.6	59.6	59.6	95	58.2	0	0	---	0.00	29.865 
23:40	59.6	59.6	59.6	95	58.2	0	0	---	0.00	29.865 
23:45	59.6	59.6	59.6	95	58.2	0	0	---	0.00	29.864 
23:50	59.6	59.6	59.6	95	58.2	0	0	---	0.00	29.864 
23:55	59.6	59.6	59.6	95	58.2	0	1	292	0.00	29.864 

CoCoRaHS
IN-AL-39
A2 Web Hosting
Creative Commons License
GoDaddy
search engine by freefind advanced

loaded 2018-11-15 03:06:26 • last modified 2010-11-18 10:43:29
Privacy PolicyDisclaimer
• wx.awcolley.com is powered by PmWiki v.2002016 •
• all content (unless otherwise noted) © 2018 A W Colley